createdAt,value
2019-02-27T00:01:23.053Z,145.95
2019-02-27T00:03:53.485Z,145.92
2019-02-27T00:06:23.876Z,139.95
2019-02-27T00:08:54.243Z,140.62
2019-02-27T00:11:24.635Z,150.78
2019-02-27T00:13:57.991Z,137.97
2019-02-27T00:16:28.070Z,147.25
2019-02-27T00:18:59.326Z,150.90
2019-02-27T00:21:29.808Z,158.20
2019-02-27T00:24:00.172Z,146.13
2019-02-27T00:26:31.630Z,154.95
2019-02-27T00:29:01.994Z,145.68
2019-02-27T00:31:34.144Z,134.10
2019-02-27T00:34:04.505Z,146.93
2019-02-27T00:36:34.899Z,142.50
2019-02-27T00:39:07.100Z,144.75
2019-02-27T00:41:37.861Z,149.65
2019-02-27T00:44:08.232Z,137.92
2019-02-27T00:46:38.622Z,135.40
2019-02-27T00:49:08.988Z,139.77
2019-02-27T00:51:44.670Z,145.95
2019-02-27T00:54:13.067Z,148.57
2019-02-27T00:56:45.020Z,143.35
2019-02-27T00:59:15.517Z,148.60
2019-02-27T01:01:47.434Z,132.95
2019-02-27T01:04:17.967Z,150.22
2019-02-27T01:06:48.364Z,140.70
2019-02-27T01:09:19.694Z,143.50
2019-02-27T01:11:51.835Z,137.47
2019-02-27T01:14:22.157Z,130.78
2019-02-27T01:16:52.538Z,148.72
2019-02-27T01:19:22.903Z,143.40
2019-02-27T01:21:53.293Z,156.02
2019-02-27T01:24:23.656Z,135.52
2019-02-27T01:26:54.041Z,139.43
2019-02-27T01:29:24.424Z,138.30
2019-02-27T01:31:55.008Z,141.80
2019-02-27T01:34:26.854Z,123.53
2019-02-27T01:36:57.985Z,130.20
2019-02-27T01:39:28.893Z,139.43
2019-02-27T01:41:59.276Z,136.75
2019-02-27T01:44:30.709Z,136.65
2019-02-27T01:47:02.295Z,135.15
2019-02-27T01:49:33.334Z,138.22
2019-02-27T01:52:03.721Z,136.22
2019-02-27T01:54:34.082Z,143.60
2019-02-27T01:57:04.468Z,140.47
2019-02-27T01:59:34.823Z,142.87
2019-02-27T02:02:05.200Z,144.97
2019-02-27T02:04:36.638Z,140.25
2019-02-27T02:07:07.380Z,127.58
2019-02-27T02:09:38.511Z,128.30
2019-02-27T02:12:19.078Z,126.90
2019-02-27T02:15:02.426Z,133.07
2019-02-27T02:18:11.873Z,128.05
2019-02-27T02:21:04.806Z,134.25
2019-02-27T02:23:56.832Z,138.15
2019-02-27T02:26:43.507Z,135.12
2019-02-27T02:29:39.298Z,136.95
2019-02-27T02:32:29.518Z,138.75
2019-02-27T02:35:07.146Z,135.63
2019-02-27T02:38:14.507Z,132.78
2019-02-27T02:40:49.481Z,138.37
2019-02-27T02:43:24.489Z,145.12
2019-02-27T02:46:09.802Z,131.90
2019-02-27T02:49:08.041Z,143.65
2019-02-27T02:52:14.392Z,136.00
2019-02-27T02:54:58.007Z,141.97
2019-02-27T02:57:50.573Z,159.40
2019-02-27T03:00:39.086Z,143.55
2019-02-27T03:03:21.884Z,150.00
2019-02-27T03:06:16.565Z,141.47
2019-02-27T03:09:10.953Z,153.78
2019-02-27T03:12:29.697Z,166.50
2019-02-27T03:15:19.034Z,188.75
2019-02-27T03:18:32.841Z,162.53
2019-02-27T03:21:27.299Z,157.62
2019-02-27T03:24:08.446Z,165.85
2019-02-27T03:26:44.494Z,184.28
2019-02-27T03:29:34.432Z,160.93
2019-02-27T03:35:28.361Z,375.75
2019-02-27T03:38:24.908Z,403.08
2019-02-27T03:41:08.638Z,331.95
2019-02-27T03:44:07.502Z,385.68
2019-02-27T03:46:45.146Z,573.67
2019-02-27T03:49:39.751Z,316.17
2019-02-27T03:52:48.710Z,507.00
2019-02-27T03:56:13.749Z,519.10
2019-02-27T03:58:51.650Z,238.10
2019-02-27T04:01:38.012Z,223.35
2019-02-27T04:04:30.569Z,186.22
2019-02-27T04:07:36.028Z,315.85
2019-02-27T04:10:06.826Z,151.42
2019-02-27T04:12:37.178Z,149.50
2019-02-27T04:15:09.701Z,145.82
2019-02-27T04:17:38.438Z,151.72
2019-02-27T04:20:28.154Z,142.60
2019-02-27T04:22:58.518Z,146.53
2019-02-27T04:25:31.424Z,145.10
2019-02-27T04:28:00.965Z,137.22
2019-02-27T04:30:31.347Z,130.40
2019-02-27T04:33:01.710Z,137.40
2019-02-27T04:35:34.201Z,143.78
2019-02-27T04:38:04.154Z,137.40
2019-02-27T04:40:34.536Z,149.80
2019-02-27T04:43:04.898Z,148.72
2019-02-27T04:45:35.290Z,138.82
2019-02-27T04:48:05.677Z,147.02
2019-02-27T04:50:36.027Z,142.85
2019-02-27T04:53:06.423Z,125.05
2019-02-27T04:55:36.771Z,127.50
2019-02-27T04:58:09.082Z,127.20
2019-02-27T05:00:39.253Z,129.75
2019-02-27T05:03:09.663Z,134.35
2019-02-27T05:05:41.378Z,140.07
2019-02-27T05:08:12.187Z,139.65
2019-02-27T05:10:42.594Z,132.52
2019-02-27T05:13:13.004Z,135.15
2019-02-27T05:15:43.471Z,127.00
2019-02-27T05:18:13.882Z,126.45
2019-02-27T05:20:45.678Z,129.93
2019-02-27T05:23:16.198Z,125.07
2019-02-27T05:25:46.555Z,122.78
2019-02-27T05:28:16.941Z,132.47
2019-02-27T05:30:47.310Z,130.05
2019-02-27T05:33:17.694Z,129.07
2019-02-27T05:35:48.057Z,131.47
2019-02-27T05:38:18.452Z,129.60
2019-02-27T05:40:48.804Z,130.78
2019-02-27T05:43:19.184Z,121.15
2019-02-27T05:45:49.552Z,127.38
2019-02-27T05:48:20.208Z,123.10
2019-02-27T05:50:51.009Z,118.15
2019-02-27T05:53:22.292Z,123.60
2019-02-27T05:55:53.224Z,124.35
2019-02-27T05:58:23.634Z,116.70
2019-02-27T06:00:53.977Z,121.33
2019-02-27T06:03:24.360Z,123.38
2019-02-27T06:05:54.749Z,124.15
2019-02-27T06:08:25.133Z,128.70
2019-02-27T06:10:56.207Z,124.65
2019-02-27T06:13:26.772Z,130.12
2019-02-27T06:15:57.129Z,122.35
2019-02-27T06:18:27.507Z,119.05
2019-02-27T06:20:57.874Z,127.35
2019-02-27T06:23:28.257Z,121.85
2019-02-27T06:25:59.375Z,128.85
2019-02-27T06:28:30.594Z,124.10
2019-02-27T06:31:02.525Z,119.53
2019-02-27T06:33:33.029Z,113.75
2019-02-27T06:36:05.414Z,111.65
2019-02-27T06:38:35.468Z,115.57
2019-02-27T06:41:05.836Z,115.65
2019-02-27T06:43:36.223Z,106.37
2019-02-27T06:46:06.592Z,115.77
2019-02-27T06:48:36.972Z,112.08
2019-02-27T06:51:07.336Z,107.67
2019-02-27T06:53:37.720Z,108.57
2019-02-27T06:56:08.152Z,105.12
2019-02-27T06:58:38.531Z,105.00
2019-02-27T07:01:09.691Z,102.65
2019-02-27T07:03:51.561Z,97.95
2019-02-27T07:06:22.258Z,100.92
2019-02-27T07:08:52.693Z,90.00
2019-02-27T07:11:23.053Z,89.20
2019-02-27T07:13:53.431Z,99.72
2019-02-27T07:16:23.824Z,84.25
2019-02-27T07:18:54.183Z,82.88
2019-02-27T07:21:24.611Z,80.72
2019-02-27T07:23:58.591Z,77.05
2019-02-27T07:26:27.208Z,78.47
2019-02-27T07:28:57.587Z,75.87
2019-02-27T07:31:27.948Z,78.83
2019-02-27T07:33:58.328Z,74.05
2019-02-27T07:36:28.742Z,73.35
2019-02-27T07:38:59.122Z,77.20
2019-02-27T07:41:29.484Z,72.45
2019-02-27T07:43:59.859Z,65.70
2019-02-27T07:46:30.215Z,63.33
2019-02-27T07:49:01.550Z,62.40
2019-02-27T07:51:31.921Z,58.52
2019-02-27T07:54:03.922Z,65.83
2019-02-27T07:56:34.447Z,60.40
2019-02-27T07:59:04.836Z,53.87
2019-02-27T08:01:43.539Z,52.90
2019-02-27T08:04:07.307Z,55.55
2019-02-27T08:06:38.483Z,55.28
2019-02-27T08:09:09.302Z,52.62
2019-02-27T08:11:40.033Z,49.00
2019-02-27T08:14:10.421Z,52.45
2019-02-27T08:16:41.048Z,50.92
2019-02-27T08:19:12.283Z,47.90
2019-02-27T08:21:42.813Z,55.90
2019-02-27T08:24:14.360Z,47.23
2019-02-27T08:26:44.912Z,51.63
2019-02-27T08:29:28.000Z,53.70
2019-02-27T08:32:00.759Z,54.08
2019-02-27T08:34:30.450Z,48.90
2019-02-27T08:37:00.813Z,55.25
2019-02-27T08:39:31.301Z,55.25
2019-02-27T08:42:03.594Z,53.73
2019-02-27T08:44:33.751Z,48.38
2019-02-27T08:47:04.374Z,43.55
2019-02-27T08:49:34.791Z,43.68
2019-02-27T08:52:05.162Z,42.80
2019-02-27T08:54:35.553Z,37.75
2019-02-27T08:57:06.991Z,35.78
2019-02-27T08:59:39.823Z,35.30
2019-02-27T09:02:10.287Z,39.67
2019-02-27T09:04:42.853Z,35.65
2019-02-27T09:07:12.745Z,35.13
2019-02-27T09:09:43.132Z,33.70
2019-02-27T09:12:14.070Z,33.10
2019-02-27T09:14:44.474Z,34.63
2019-02-27T09:17:14.837Z,34.15
2019-02-27T09:19:46.279Z,34.23
2019-02-27T09:22:16.922Z,31.80
2019-02-27T09:24:47.309Z,33.85
2019-02-27T09:27:17.703Z,33.58
2019-02-27T09:29:49.366Z,31.45
2019-02-27T09:32:20.457Z,34.18
2019-02-27T09:34:50.936Z,33.30
2019-02-27T09:37:21.300Z,32.95
2019-02-27T09:39:51.691Z,33.78
2019-02-27T09:42:22.065Z,31.60
2019-02-27T09:44:52.625Z,34.95
2019-02-27T09:47:23.232Z,32.80
2019-02-27T09:49:55.092Z,29.95
2019-02-27T09:52:27.808Z,32.53
2019-02-27T09:54:57.563Z,32.23
2019-02-27T09:57:27.929Z,31.45
2019-02-27T09:59:58.314Z,33.15
2019-02-27T10:02:28.723Z,31.97
2019-02-27T10:05:03.073Z,30.50
2019-02-27T10:07:31.334Z,30.82
2019-02-27T10:10:02.906Z,27.77
2019-02-27T10:12:34.230Z,29.07
2019-02-27T10:15:05.575Z,32.03
2019-02-27T10:17:36.042Z,31.87
2019-02-27T10:20:08.942Z,30.43
2019-02-27T10:22:39.338Z,33.78
2019-02-27T10:25:09.927Z,31.30
2019-02-27T10:27:40.295Z,29.02
2019-02-27T10:30:16.647Z,32.63
2019-02-27T10:32:46.863Z,29.63
2019-02-27T10:35:17.622Z,34.30
2019-02-27T10:37:50.801Z,31.55
2019-02-27T10:40:26.340Z,33.02
2019-02-27T10:42:57.151Z,30.32
2019-02-27T10:45:27.573Z,30.05
2019-02-27T10:47:57.941Z,31.80
2019-02-27T10:50:28.340Z,31.15
2019-02-27T10:52:58.710Z,30.15
2019-02-27T10:55:29.100Z,30.02
2019-02-27T10:57:59.496Z,27.87
2019-02-27T11:00:35.927Z,28.47
2019-02-27T11:03:06.558Z,28.05
2019-02-27T11:05:39.058Z,29.77
2019-02-27T11:08:09.431Z,32.13
2019-02-27T11:10:39.825Z,29.07
2019-02-27T11:13:10.184Z,28.47
2019-02-27T11:15:41.535Z,26.80
2019-02-27T11:18:12.633Z,30.77
2019-02-27T11:20:43.025Z,27.45
2019-02-27T11:23:13.393Z,30.88
2019-02-27T11:25:43.787Z,27.42
2019-02-27T11:28:14.163Z,27.00
2019-02-27T11:30:46.334Z,27.90
2019-02-27T11:33:25.760Z,31.17
2019-02-27T11:35:48.796Z,30.55
2019-02-27T11:38:24.155Z,25.95
2019-02-27T11:40:51.324Z,28.60
2019-02-27T11:43:21.693Z,26.20
2019-02-27T11:45:52.092Z,24.47
2019-02-27T11:48:22.895Z,29.05
2019-02-27T11:50:53.828Z,27.02
2019-02-27T11:53:24.293Z,28.40
2019-02-27T11:55:54.692Z,28.27
2019-02-27T11:58:25.081Z,27.65
2019-02-27T12:00:55.462Z,29.52
2019-02-27T12:03:25.855Z,30.77
2019-02-27T12:05:56.228Z,26.57
2019-02-27T12:08:26.890Z,29.75
2019-02-27T12:10:58.343Z,29.48
2019-02-27T12:13:28.807Z,27.60
2019-02-27T12:15:59.173Z,26.27
2019-02-27T12:18:32.213Z,27.58
2019-02-27T12:21:01.629Z,25.15
2019-02-27T12:23:32.020Z,27.07
2019-02-27T12:26:02.617Z,29.10
2019-02-27T12:28:34.720Z,31.52
2019-02-27T12:31:05.265Z,31.07
2019-02-27T12:33:35.658Z,27.85
2019-02-27T12:36:06.025Z,29.72
2019-02-27T12:38:36.412Z,29.80
2019-02-27T12:41:09.578Z,28.47
2019-02-27T12:43:39.971Z,28.40
2019-02-27T12:46:10.348Z,28.47
2019-02-27T12:48:40.743Z,38.45
2019-02-27T12:51:11.110Z,30.95
2019-02-27T12:53:42.433Z,27.58
2019-02-27T12:56:12.947Z,30.40
2019-02-27T12:58:43.336Z,27.95
2019-02-27T13:01:16.155Z,29.42
2019-02-27T13:03:45.786Z,25.23
2019-02-27T13:06:16.169Z,25.05
2019-02-27T13:08:46.732Z,27.35
2019-02-27T13:11:17.097Z,26.48
2019-02-27T13:13:47.485Z,28.05
2019-02-27T13:16:17.857Z,30.05
2019-02-27T13:18:48.241Z,25.15
2019-02-27T13:21:20.582Z,24.67
2019-02-27T13:23:50.692Z,23.98
2019-02-27T13:26:21.081Z,23.15
2019-02-27T13:28:51.535Z,25.68
2019-02-27T13:31:21.929Z,25.32
2019-02-27T13:33:52.304Z,28.45
2019-02-27T13:36:22.729Z,24.07
2019-02-27T13:38:53.082Z,24.37
2019-02-27T13:41:23.886Z,25.20
2019-02-27T13:43:54.320Z,24.55
2019-02-27T13:46:24.735Z,26.42
2019-02-27T13:48:55.108Z,26.55
2019-02-27T13:51:25.492Z,25.70
2019-02-27T13:54:00.305Z,27.73
2019-02-27T13:56:28.187Z,28.30
2019-02-27T13:58:58.523Z,26.93
2019-02-27T14:01:29.358Z,26.65
2019-02-27T14:03:59.754Z,30.60
2019-02-27T14:06:30.144Z,24.35
2019-02-27T14:09:00.515Z,29.50
2019-02-27T14:11:32.524Z,27.48
2019-02-27T14:14:02.907Z,27.60
2019-02-27T14:16:34.738Z,29.90
2019-02-27T14:19:05.918Z,27.32
2019-02-27T14:21:36.350Z,26.80
2019-02-27T14:24:06.675Z,26.02
2019-02-27T14:26:38.351Z,27.73
2019-02-27T14:29:09.149Z,23.45
2019-02-27T14:31:40.112Z,25.52
2019-02-27T14:34:11.622Z,26.65
2019-02-27T14:36:42.513Z,23.12
2019-02-27T14:39:14.798Z,25.32
2019-02-27T14:41:47.893Z,23.47
2019-02-27T14:44:17.259Z,24.05
2019-02-27T14:46:47.648Z,24.63
2019-02-27T14:49:18.018Z,23.42
2019-02-27T14:51:48.410Z,23.15
2019-02-27T14:54:18.778Z,22.27
2019-02-27T14:56:50.247Z,21.42
2019-02-27T14:59:20.692Z,22.22
2019-02-27T15:01:51.086Z,21.85
2019-02-27T15:04:21.532Z,22.15
2019-02-27T15:06:51.928Z,19.62
2019-02-27T15:09:22.366Z,18.65
2019-02-27T15:11:52.760Z,21.00
2019-02-27T15:14:23.225Z,21.27
2019-02-27T15:16:53.606Z,20.82
2019-02-27T15:19:23.967Z,22.95
2019-02-27T15:21:54.431Z,20.72
2019-02-27T15:24:24.803Z,19.52
2019-02-27T15:26:55.201Z,19.45
2019-02-27T15:29:25.569Z,19.57
2019-02-27T15:31:56.059Z,21.37
2019-02-27T15:34:26.422Z,18.02
2019-02-27T15:36:56.889Z,21.55
2019-02-27T15:39:28.012Z,20.65
2019-02-27T15:41:58.524Z,21.70
2019-02-27T15:44:31.363Z,19.90
2019-02-27T15:47:00.964Z,21.82
2019-02-27T15:49:32.603Z,21.73
2019-02-27T15:52:06.422Z,16.75
2019-02-27T15:54:35.086Z,17.12
2019-02-27T15:57:05.479Z,18.57
2019-02-27T15:59:40.877Z,18.90
2019-02-27T16:02:08.351Z,19.23
2019-02-27T16:04:38.739Z,16.67
2019-02-27T16:07:11.159Z,17.75
2019-02-27T16:09:42.327Z,20.52
2019-02-27T16:12:12.753Z,17.85
2019-02-27T16:14:43.701Z,18.25
2019-02-27T16:17:14.141Z,18.62
2019-02-27T16:19:44.661Z,17.92
2019-02-27T16:22:15.779Z,19.42
2019-02-27T16:24:46.144Z,18.55
2019-02-27T16:27:16.572Z,16.05
2019-02-27T16:29:46.937Z,16.32
2019-02-27T16:32:17.444Z,19.30
2019-02-27T16:34:47.812Z,16.55
2019-02-27T16:37:22.854Z,16.97
2019-02-27T16:39:51.534Z,16.57
2019-02-27T16:42:22.027Z,16.10
2019-02-27T16:45:19.719Z,14.93
2019-02-27T16:47:50.111Z,20.30
2019-02-27T16:50:26.370Z,18.73
2019-02-27T16:52:56.735Z,19.92
2019-02-27T16:55:28.374Z,19.05
2019-02-27T16:58:18.179Z,19.15
2019-02-27T17:00:48.630Z,19.07
2019-02-27T17:03:19.038Z,17.98
2019-02-27T17:05:49.832Z,16.65
2019-02-27T17:08:20.358Z,17.05
2019-02-27T17:10:51.943Z,18.70
2019-02-27T17:13:22.903Z,21.45
2019-02-27T17:15:53.255Z,19.05
2019-02-27T17:18:27.905Z,23.87
2019-02-27T17:20:55.735Z,19.15
2019-02-27T17:23:26.158Z,20.32
2019-02-27T17:25:56.611Z,20.75
2019-02-27T17:28:28.129Z,22.35
2019-02-27T17:31:01.789Z,20.00
2019-02-27T17:33:31.701Z,19.75
2019-02-27T17:36:02.059Z,19.17
2019-02-27T17:38:32.463Z,19.70
2019-02-27T17:41:02.807Z,17.35
2019-02-27T17:43:33.188Z,19.57
2019-02-27T17:46:04.764Z,19.50
2019-02-27T17:48:35.182Z,20.85
2019-02-27T17:51:06.462Z,20.80
2019-02-27T17:53:37.102Z,21.80
2019-02-27T17:56:07.434Z,19.75
2019-02-27T17:58:37.821Z,23.87
2019-02-27T18:01:09.825Z,21.27
2019-02-27T18:03:41.773Z,24.85
2019-02-27T18:06:12.252Z,22.15
2019-02-27T18:08:42.826Z,19.42
2019-02-27T18:11:15.630Z,21.15
2019-02-27T18:13:47.670Z,17.25
2019-02-27T18:16:17.894Z,18.02
2019-02-27T18:18:48.670Z,21.17
2019-02-27T18:21:19.201Z,20.12
2019-02-27T18:23:49.658Z,21.62
2019-02-27T18:26:20.083Z,17.75
2019-02-27T18:28:50.881Z,17.70
2019-02-27T18:31:21.320Z,18.95
2019-02-27T18:33:51.776Z,17.02
2019-02-27T18:36:22.206Z,18.77
2019-02-27T18:38:52.733Z,17.73
2019-02-27T18:41:23.115Z,20.35
2019-02-27T18:43:53.866Z,21.15
2019-02-27T18:46:25.546Z,21.55
2019-02-27T18:48:56.043Z,24.55
2019-02-27T18:51:26.567Z,23.87
2019-02-27T18:53:58.012Z,28.40
2019-02-27T18:56:28.552Z,23.73
2019-02-27T18:58:59.156Z,22.75
2019-02-27T19:01:29.586Z,17.40
2019-02-27T19:04:01.240Z,16.62
2019-02-27T19:06:32.951Z,23.77
2019-02-27T19:09:04.033Z,20.50
2019-02-27T19:11:36.129Z,18.27
2019-02-27T19:14:06.719Z,20.88
2019-02-27T19:16:37.102Z,19.10
2019-02-27T19:19:07.627Z,17.60
2019-02-27T19:21:38.015Z,24.77
2019-02-27T19:24:08.554Z,20.62
2019-02-27T19:26:41.740Z,18.98
2019-02-27T19:29:11.346Z,17.57
2019-02-27T19:31:41.801Z,21.00
2019-02-27T19:34:12.227Z,18.05
2019-02-27T19:36:42.612Z,16.65
2019-02-27T19:39:13.041Z,27.10
2019-02-27T19:41:43.572Z,57.60
2019-02-27T19:44:14.144Z,55.83
2019-02-27T19:46:47.420Z,48.20
2019-02-27T19:49:16.583Z,40.55
2019-02-27T19:51:47.043Z,36.45
2019-02-27T19:54:18.612Z,31.75
2019-02-27T19:56:49.124Z,22.75
2019-02-27T19:59:19.478Z,24.02
2019-02-27T20:01:50.319Z,21.97
2019-02-27T20:04:20.670Z,22.77
2019-02-27T20:06:51.419Z,22.40
2019-02-27T20:09:22.183Z,21.27
2019-02-27T20:11:52.569Z,20.12
2019-02-27T20:14:22.998Z,21.07
2019-02-27T20:16:55.224Z,24.82
2019-02-27T20:19:46.139Z,18.57
2019-02-27T20:22:18.998Z,18.95
2019-02-27T20:24:48.980Z,21.90
2019-02-27T20:27:19.543Z,21.27
2019-02-27T20:29:49.908Z,19.95
2019-02-27T20:32:20.305Z,21.45
2019-02-27T20:34:51.623Z,22.75
2019-02-27T20:37:22.079Z,22.50
2019-02-27T20:39:58.286Z,22.45
2019-02-27T20:42:24.543Z,20.00
2019-02-27T20:44:54.894Z,22.45
2019-02-27T20:47:25.281Z,22.02
2019-02-27T20:49:55.639Z,23.15
2019-02-27T20:52:27.014Z,20.45
2019-02-27T20:54:58.836Z,19.85
2019-02-27T20:57:29.448Z,23.80
2019-02-27T21:00:02.144Z,22.35
2019-02-27T21:02:32.666Z,22.10
2019-02-27T21:05:03.018Z,22.67
2019-02-27T21:07:35.358Z,19.40
2019-02-27T21:10:10.277Z,20.37
2019-02-27T21:12:42.589Z,19.95
2019-02-27T21:15:15.135Z,21.33
2019-02-27T21:17:45.520Z,20.97
2019-02-27T21:20:16.663Z,21.62
2019-02-27T21:22:47.145Z,22.32
2019-02-27T21:25:17.506Z,18.73
2019-02-27T21:27:48.133Z,21.97
2019-02-27T21:30:23.329Z,19.30
2019-02-27T21:32:53.710Z,20.68
2019-02-27T21:35:28.838Z,20.90
2019-02-27T21:37:56.461Z,21.12
2019-02-27T21:40:26.858Z,24.18
2019-02-27T21:42:57.210Z,22.87
2019-02-27T21:45:27.563Z,22.15
2019-02-27T21:47:57.993Z,24.00
2019-02-27T21:50:28.346Z,22.35
2019-02-27T21:52:58.797Z,25.97
2019-02-27T21:55:29.165Z,19.77
2019-02-27T21:57:59.713Z,19.02
2019-02-27T22:00:30.447Z,20.35
2019-02-27T22:03:03.634Z,19.30
2019-02-27T22:05:42.289Z,19.00
2019-02-27T22:08:06.099Z,21.70
2019-02-27T22:10:36.536Z,17.27
2019-02-27T22:13:10.587Z,18.70
2019-02-27T22:15:38.975Z,18.75
2019-02-27T22:18:11.803Z,19.27
2019-02-27T22:20:41.406Z,15.63
2019-02-27T22:23:12.738Z,20.60
2019-02-27T22:25:45.057Z,17.92
2019-02-27T22:28:17.340Z,20.10
2019-02-27T22:30:47.562Z,18.42
2019-02-27T22:33:21.949Z,18.67
2019-02-27T22:35:49.992Z,17.32
2019-02-27T22:38:25.684Z,19.50
2019-02-27T22:40:52.429Z,22.73
2019-02-27T22:43:22.874Z,22.07
2019-02-27T22:45:53.250Z,18.07
2019-02-27T22:48:27.700Z,19.37
2019-02-27T22:50:55.675Z,17.70
2019-02-27T22:53:26.243Z,17.65
2019-02-27T22:55:58.107Z,18.90
2019-02-27T22:58:28.475Z,21.40
2019-02-27T23:01:10.240Z,17.23
2019-02-27T23:03:50.889Z,19.80
2019-02-27T23:06:21.502Z,20.50
2019-02-27T23:08:54.376Z,18.10
2019-02-27T23:11:24.448Z,19.70
2019-02-27T23:13:54.932Z,18.52
2019-02-27T23:16:29.810Z,19.75
2019-02-27T23:19:01.121Z,22.52
2019-02-27T23:21:31.476Z,20.57
2019-02-27T23:24:07.198Z,23.95
2019-02-27T23:26:36.821Z,27.37
2019-02-27T23:29:07.196Z,21.27
2019-02-27T23:31:37.557Z,19.23
2019-02-27T23:34:08.614Z,19.15
2019-02-27T23:36:39.080Z,22.60
2019-02-27T23:39:10.195Z,21.87
2019-02-27T23:41:40.549Z,19.80
2019-02-27T23:44:12.200Z,21.68
2019-02-27T23:46:49.768Z,23.02
2019-02-27T23:49:14.828Z,18.37
2019-02-27T23:51:47.700Z,19.15
2019-02-27T23:54:17.315Z,20.52
2019-02-27T23:56:47.733Z,19.30
2019-02-27T23:59:18.109Z,17.12
